sensor_id;sensor_type;location;lat;lon;timestamp;P1;durP1;ratioP1;P2;durP2;ratioP2
30398;SDS011;17195;50.838;7.214;2022-08-03T00:01:19;2.58;;;2.38;;
30398;SDS011;17195;50.838;7.214;2022-08-03T00:03:45;2.95;;;2.63;;
30398;SDS011;17195;50.838;7.214;2022-08-03T00:06:10;5.53;;;3.08;;
30398;SDS011;17195;50.838;7.214;2022-08-03T00:08:36;3.10;;;2.67;;
30398;SDS011;17195;50.838;7.214;2022-08-03T00:11:02;2.67;;;2.47;;
30398;SDS011;17195;50.838;7.214;2022-08-03T00:13:28;2.88;;;2.67;;
30398;SDS011;17195;50.838;7.214;2022-08-03T00:15:54;2.97;;;2.67;;
30398;SDS011;17195;50.838;7.214;2022-08-03T00:18:20;4.70;;;2.40;;
30398;SDS011;17195;50.838;7.214;2022-08-03T00:20:46;3.00;;;2.67;;
30398;SDS011;17195;50.838;7.214;2022-08-03T00:23:11;2.88;;;2.67;;
30398;SDS011;17195;50.838;7.214;2022-08-03T00:25:37;3.60;;;2.83;;
30398;SDS011;17195;50.838;7.214;2022-08-03T00:28:03;4.78;;;2.70;;
30398;SDS011;17195;50.838;7.214;2022-08-03T00:30:30;4.15;;;2.78;;
30398;SDS011;17195;50.838;7.214;2022-08-03T00:32:56;2.92;;;2.60;;
30398;SDS011;17195;50.838;7.214;2022-08-03T00:35:22;3.58;;;2.75;;
30398;SDS011;17195;50.838;7.214;2022-08-03T00:37:48;2.75;;;2.55;;
30398;SDS011;17195;50.838;7.214;2022-08-03T00:40:14;3.40;;;2.72;;
30398;SDS011;17195;50.838;7.214;2022-08-03T00:45:12;2.97;;;2.63;;
30398;SDS011;17195;50.838;7.214;2022-08-03T00:47:38;2.63;;;2.30;;
30398;SDS011;17195;50.838;7.214;2022-08-03T00:50:04;5.57;;;2.80;;
30398;SDS011;17195;50.838;7.214;2022-08-03T00:52:30;3.05;;;2.67;;
30398;SDS011;17195;50.838;7.214;2022-08-03T00:54:55;2.65;;;2.45;;
30398;SDS011;17195;50.838;7.214;2022-08-03T00:57:21;3.10;;;2.90;;
30398;SDS011;17195;50.838;7.214;2022-08-03T00:59:46;3.10;;;2.65;;
30398;SDS011;17195;50.838;7.214;2022-08-03T01:02:12;2.72;;;2.53;;
30398;SDS011;17195;50.838;7.214;2022-08-03T01:04:37;4.72;;;2.78;;
30398;SDS011;17195;50.838;7.214;2022-08-03T01:07:15;4.38;;;2.80;;
30398;SDS011;17195;50.838;7.214;2022-08-03T01:10:00;5.03;;;3.10;;
30398;SDS011;17195;50.838;7.214;2022-08-03T01:15:28;2.78;;;2.58;;
30398;SDS011;17195;50.838;7.214;2022-08-03T01:17:56;4.35;;;2.72;;
30398;SDS011;17195;50.838;7.214;2022-08-03T01:20:30;2.90;;;2.60;;
30398;SDS011;17195;50.838;7.214;2022-08-03T01:25:54;2.95;;;2.75;;
30398;SDS011;17195;50.838;7.214;2022-08-03T01:28:38;4.32;;;2.92;;
30398;SDS011;17195;50.838;7.214;2022-08-03T01:31:09;3.83;;;2.70;;
30398;SDS011;17195;50.838;7.214;2022-08-03T01:33:38;2.90;;;2.70;;
30398;SDS011;17195;50.838;7.214;2022-08-03T01:36:08;3.67;;;2.72;;
30398;SDS011;17195;50.838;7.214;2022-08-03T01:38:45;3.22;;;2.88;;
30398;SDS011;17195;50.838;7.214;2022-08-03T01:41:16;5.32;;;2.92;;
30398;SDS011;17195;50.838;7.214;2022-08-03T01:43:45;3.95;;;2.85;;
30398;SDS011;17195;50.838;7.214;2022-08-03T01:46:14;3.03;;;2.72;;
30398;SDS011;17195;50.838;7.214;2022-08-03T01:48:42;3.80;;;2.80;;
30398;SDS011;17195;50.838;7.214;2022-08-03T01:51:10;3.00;;;2.80;;
30398;SDS011;17195;50.838;7.214;2022-08-03T01:53:36;3.30;;;2.80;;
30398;SDS011;17195;50.838;7.214;2022-08-03T01:56:06;2.70;;;2.50;;
30398;SDS011;17195;50.838;7.214;2022-08-03T01:58:33;4.32;;;2.90;;
30398;SDS011;17195;50.838;7.214;2022-08-03T02:01:01;3.38;;;2.65;;
30398;SDS011;17195;50.838;7.214;2022-08-03T02:03:28;3.45;;;3.05;;
30398;SDS011;17195;50.838;7.214;2022-08-03T02:05:57;3.15;;;2.88;;
30398;SDS011;17195;50.838;7.214;2022-08-03T02:08:24;3.60;;;2.83;;
30398;SDS011;17195;50.838;7.214;2022-08-03T02:10:51;3.08;;;2.80;;
30398;SDS011;17195;50.838;7.214;2022-08-03T02:13:18;3.05;;;2.80;;
30398;SDS011;17195;50.838;7.214;2022-08-03T02:15:45;3.40;;;2.58;;
30398;SDS011;17195;50.838;7.214;2022-08-03T02:18:12;3.03;;;2.70;;
30398;SDS011;17195;50.838;7.214;2022-08-03T02:20:40;2.83;;;2.63;;
30398;SDS011;17195;50.838;7.214;2022-08-03T02:23:07;3.25;;;2.78;;
30398;SDS011;17195;50.838;7.214;2022-08-03T02:25:34;3.67;;;2.85;;
30398;SDS011;17195;50.838;7.214;2022-08-03T02:28:06;3.58;;;2.42;;
30398;SDS011;17195;50.838;7.214;2022-08-03T02:30:36;2.90;;;2.70;;
30398;SDS011;17195;50.838;7.214;2022-08-03T02:33:03;3.13;;;2.83;;
30398;SDS011;17195;50.838;7.214;2022-08-03T02:35:32;3.00;;;2.70;;
30398;SDS011;17195;50.838;7.214;2022-08-03T02:38:01;3.05;;;2.78;;
30398;SDS011;17195;50.838;7.214;2022-08-03T02:40:28;3.90;;;3.10;;
30398;SDS011;17195;50.838;7.214;2022-08-03T02:42:59;3.35;;;3.00;;
30398;SDS011;17195;50.838;7.214;2022-08-03T02:45:29;2.90;;;2.65;;
30398;SDS011;17195;50.838;7.214;2022-08-03T02:47:57;3.42;;;2.72;;
30398;SDS011;17195;50.838;7.214;2022-08-03T02:50:26;3.97;;;2.90;;
30398;SDS011;17195;50.838;7.214;2022-08-03T02:52:54;3.53;;;3.17;;
30398;SDS011;17195;50.838;7.214;2022-08-03T02:55:21;3.17;;;2.83;;
30398;SDS011;17195;50.838;7.214;2022-08-03T02:57:48;3.38;;;3.08;;
30398;SDS011;17195;50.838;7.214;2022-08-03T03:00:15;3.03;;;2.83;;
30398;SDS011;17195;50.838;7.214;2022-08-03T03:02:41;2.92;;;2.65;;
30398;SDS011;17195;50.838;7.214;2022-08-03T03:05:08;4.90;;;3.10;;
30398;SDS011;17195;50.838;7.214;2022-08-03T03:07:34;6.47;;;2.78;;
30398;SDS011;17195;50.838;7.214;2022-08-03T03:10:01;3.30;;;2.97;;
30398;SDS011;17195;50.838;7.214;2022-08-03T03:12:28;3.33;;;2.90;;
30398;SDS011;17195;50.838;7.214;2022-08-03T03:14:56;3.10;;;2.90;;
30398;SDS011;17195;50.838;7.214;2022-08-03T03:17:21;3.00;;;2.80;;
30398;SDS011;17195;50.838;7.214;2022-08-03T03:19:48;3.47;;;2.90;;
30398;SDS011;17195;50.838;7.214;2022-08-03T03:22:16;3.10;;;2.90;;
30398;SDS011;17195;50.838;7.214;2022-08-03T03:24:42;3.30;;;3.00;;
30398;SDS011;17195;50.838;7.214;2022-08-03T03:27:08;3.42;;;3.00;;
30398;SDS011;17195;50.838;7.214;2022-08-03T03:29:34;5.53;;;2.97;;
30398;SDS011;17195;50.838;7.214;2022-08-03T03:32:01;3.28;;;2.97;;
30398;SDS011;17195;50.838;7.214;2022-08-03T03:34:27;3.10;;;2.80;;
30398;SDS011;17195;50.838;7.214;2022-08-03T03:36:53;3.85;;;3.03;;
30398;SDS011;17195;50.838;7.214;2022-08-03T03:39:19;5.47;;;3.13;;
30398;SDS011;17195;50.838;7.214;2022-08-03T03:41:45;3.33;;;2.83;;
30398;SDS011;17195;50.838;7.214;2022-08-03T03:44:10;3.38;;;3.10;;
30398;SDS011;17195;50.838;7.214;2022-08-03T03:46:36;3.45;;;2.95;;
30398;SDS011;17195;50.838;7.214;2022-08-03T03:49:04;3.85;;;2.83;;
30398;SDS011;17195;50.838;7.214;2022-08-03T03:51:31;3.33;;;3.10;;
30398;SDS011;17195;50.838;7.214;2022-08-03T03:53:57;3.25;;;3.05;;
30398;SDS011;17195;50.838;7.214;2022-08-03T03:56:23;3.50;;;3.20;;
30398;SDS011;17195;50.838;7.214;2022-08-03T03:58:49;3.53;;;3.20;;
30398;SDS011;17195;50.838;7.214;2022-08-03T04:01:15;3.50;;;3.20;;
30398;SDS011;17195;50.838;7.214;2022-08-03T04:03:41;3.70;;;3.40;;
30398;SDS011;17195;50.838;7.214;2022-08-03T04:06:06;3.30;;;3.00;;
30398;SDS011;17195;50.838;7.214;2022-08-03T04:08:50;3.17;;;2.85;;
30398;SDS011;17195;50.838;7.214;2022-08-03T04:11:26;4.55;;;2.65;;
30398;SDS011;17195;50.838;7.214;2022-08-03T04:13:56;4.18;;;3.13;;
30398;SDS011;17195;50.838;7.214;2022-08-03T04:16:32;3.85;;;2.80;;
30398;SDS011;17195;50.838;7.214;2022-08-03T04:19:02;3.35;;;2.97;;
30398;SDS011;17195;50.838;7.214;2022-08-03T04:21:49;4.78;;;2.83;;
30398;SDS011;17195;50.838;7.214;2022-08-03T04:24:18;3.72;;;2.85;;
30398;SDS011;17195;50.838;7.214;2022-08-03T04:26:46;3.33;;;3.03;;
30398;SDS011;17195;50.838;7.214;2022-08-03T04:29:14;3.20;;;2.97;;
30398;SDS011;17195;50.838;7.214;2022-08-03T04:31:40;3.92;;;3.15;;
30398;SDS011;17195;50.838;7.214;2022-08-03T04:34:07;3.85;;;3.08;;
30398;SDS011;17195;50.838;7.214;2022-08-03T04:36:36;3.67;;;2.88;;
30398;SDS011;17195;50.838;7.214;2022-08-03T04:42:06;4.70;;;3.25;;
30398;SDS011;17195;50.838;7.214;2022-08-03T04:44:36;3.55;;;2.85;;
30398;SDS011;17195;50.838;7.214;2022-08-03T04:47:05;3.03;;;2.72;;
30398;SDS011;17195;50.838;7.214;2022-08-03T04:49:31;3.45;;;3.15;;
30398;SDS011;17195;50.838;7.214;2022-08-03T04:51:58;3.00;;;2.70;;
30398;SDS011;17195;50.838;7.214;2022-08-03T04:54:24;2.80;;;2.60;;
30398;SDS011;17195;50.838;7.214;2022-08-03T04:56:51;3.53;;;3.22;;
30398;SDS011;17195;50.838;7.214;2022-08-03T04:59:16;3.05;;;2.75;;
30398;SDS011;17195;50.838;7.214;2022-08-03T05:01:42;2.83;;;2.30;;
30398;SDS011;17195;50.838;7.214;2022-08-03T05:04:08;3.10;;;2.90;;
30398;SDS011;17195;50.838;7.214;2022-08-03T05:06:33;3.03;;;2.83;;
30398;SDS011;17195;50.838;7.214;2022-08-03T05:08:59;3.47;;;3.17;;
30398;SDS011;17195;50.838;7.214;2022-08-03T05:11:25;3.50;;;2.90;;
30398;SDS011;17195;50.838;7.214;2022-08-03T05:13:50;3.90;;;3.00;;
30398;SDS011;17195;50.838;7.214;2022-08-03T05:16:16;3.60;;;3.30;;
30398;SDS011;17195;50.838;7.214;2022-08-03T05:18:42;3.67;;;3.28;;
30398;SDS011;17195;50.838;7.214;2022-08-03T05:21:08;4.10;;;2.70;;
30398;SDS011;17195;50.838;7.214;2022-08-03T05:23:34;5.63;;;3.33;;
30398;SDS011;17195;50.838;7.214;2022-08-03T05:26:01;4.50;;;3.35;;
30398;SDS011;17195;50.838;7.214;2022-08-03T05:28:27;4.03;;;2.80;;
30398;SDS011;17195;50.838;7.214;2022-08-03T05:30:52;3.05;;;2.78;;
30398;SDS011;17195;50.838;7.214;2022-08-03T05:33:18;3.47;;;3.05;;
30398;SDS011;17195;50.838;7.214;2022-08-03T05:35:43;3.55;;;2.83;;
30398;SDS011;17195;50.838;7.214;2022-08-03T05:38:09;3.08;;;2.85;;
30398;SDS011;17195;50.838;7.214;2022-08-03T05:40:35;3.42;;;2.83;;
30398;SDS011;17195;50.838;7.214;2022-08-03T05:43:00;6.40;;;5.60;;
30398;SDS011;17195;50.838;7.214;2022-08-03T05:45:26;5.50;;;4.57;;
30398;SDS011;17195;50.838;7.214;2022-08-03T05:47:51;5.80;;;3.70;;
30398;SDS011;17195;50.838;7.214;2022-08-03T05:50:17;3.28;;;2.95;;
30398;SDS011;17195;50.838;7.214;2022-08-03T05:52:44;2.83;;;2.50;;
30398;SDS011;17195;50.838;7.214;2022-08-03T05:55:10;2.85;;;2.65;;
30398;SDS011;17195;50.838;7.214;2022-08-03T05:57:36;2.92;;;2.70;;
30398;SDS011;17195;50.838;7.214;2022-08-03T06:00:06;3.17;;;2.80;;
30398;SDS011;17195;50.838;7.214;2022-08-03T06:02:33;3.63;;;2.97;;
30398;SDS011;17195;50.838;7.214;2022-08-03T06:05:00;6.78;;;3.05;;
30398;SDS011;17195;50.838;7.214;2022-08-03T06:07:25;3.60;;;3.20;;
30398;SDS011;17195;50.838;7.214;2022-08-03T06:09:52;3.90;;;2.63;;
30398;SDS011;17195;50.838;7.214;2022-08-03T06:12:18;2.83;;;2.63;;
30398;SDS011;17195;50.838;7.214;2022-08-03T06:14:44;3.10;;;2.80;;
30398;SDS011;17195;50.838;7.214;2022-08-03T06:17:09;3.03;;;2.70;;
30398;SDS011;17195;50.838;7.214;2022-08-03T06:19:35;3.53;;;2.80;;
30398;SDS011;17195;50.838;7.214;2022-08-03T06:22:01;3.08;;;2.80;;
30398;SDS011;17195;50.838;7.214;2022-08-03T06:24:26;3.67;;;3.38;;
30398;SDS011;17195;50.838;7.214;2022-08-03T06:26:52;3.95;;;3.03;;
30398;SDS011;17195;50.838;7.214;2022-08-03T06:29:17;3.70;;;2.97;;
30398;SDS011;17195;50.838;7.214;2022-08-03T06:31:43;3.33;;;2.90;;
30398;SDS011;17195;50.838;7.214;2022-08-03T06:34:09;2.95;;;2.65;;
30398;SDS011;17195;50.838;7.214;2022-08-03T06:36:35;5.95;;;3.08;;
30398;SDS011;17195;50.838;7.214;2022-08-03T06:39:00;3.08;;;2.88;;
30398;SDS011;17195;50.838;7.214;2022-08-03T06:41:26;6.75;;;3.10;;
30398;SDS011;17195;50.838;7.214;2022-08-03T06:43:52;4.68;;;2.80;;
30398;SDS011;17195;50.838;7.214;2022-08-03T06:46:19;3.35;;;2.70;;
30398;SDS011;17195;50.838;7.214;2022-08-03T06:48:44;3.35;;;2.60;;
30398;SDS011;17195;50.838;7.214;2022-08-03T06:51:10;2.90;;;2.70;;
30398;SDS011;17195;50.838;7.214;2022-08-03T06:53:36;3.22;;;2.92;;
30398;SDS011;17195;50.838;7.214;2022-08-03T06:56:03;2.80;;;2.50;;
30398;SDS011;17195;50.838;7.214;2022-08-03T06:58:29;3.53;;;2.88;;
30398;SDS011;17195;50.838;7.214;2022-08-03T07:00:55;3.10;;;2.80;;
30398;SDS011;17195;50.838;7.214;2022-08-03T07:03:20;3.60;;;2.55;;
30398;SDS011;17195;50.838;7.214;2022-08-03T07:05:46;5.85;;;2.80;;
30398;SDS011;17195;50.838;7.214;2022-08-03T07:08:12;3.10;;;2.80;;
30398;SDS011;17195;50.838;7.214;2022-08-03T07:10:38;3.42;;;2.13;;
30398;SDS011;17195;50.838;7.214;2022-08-03T07:13:04;4.97;;;2.92;;
30398;SDS011;17195;50.838;7.214;2022-08-03T07:15:30;2.70;;;2.22;;
30398;SDS011;17195;50.838;7.214;2022-08-03T07:17:55;5.63;;;2.60;;
30398;SDS011;17195;50.838;7.214;2022-08-03T07:20:21;3.58;;;2.60;;
30398;SDS011;17195;50.838;7.214;2022-08-03T07:22:47;3.40;;;2.60;;
30398;SDS011;17195;50.838;7.214;2022-08-03T07:25:12;4.45;;;2.40;;
30398;SDS011;17195;50.838;7.214;2022-08-03T07:27:41;4.07;;;2.13;;
30398;SDS011;17195;50.838;7.214;2022-08-03T07:30:10;4.28;;;2.50;;
30398;SDS011;17195;50.838;7.214;2022-08-03T07:32:37;3.22;;;2.30;;
30398;SDS011;17195;50.838;7.214;2022-08-03T07:35:03;2.67;;;2.45;;
30398;SDS011;17195;50.838;7.214;2022-08-03T07:37:30;2.90;;;2.70;;
30398;SDS011;17195;50.838;7.214;2022-08-03T07:39:57;2.40;;;2.20;;
30398;SDS011;17195;50.838;7.214;2022-08-03T07:42:23;4.13;;;1.98;;
30398;SDS011;17195;50.838;7.214;2022-08-03T07:44:49;2.45;;;2.25;;
30398;SDS011;17195;50.838;7.214;2022-08-03T07:47:22;4.72;;;2.50;;
30398;SDS011;17195;50.838;7.214;2022-08-03T07:49:49;5.50;;;2.20;;
30398;SDS011;17195;50.838;7.214;2022-08-03T07:52:15;4.75;;;2.42;;
30398;SDS011;17195;50.838;7.214;2022-08-03T07:54:59;7.80;;;2.05;;
30398;SDS011;17195;50.838;7.214;2022-08-03T07:57:25;4.70;;;2.38;;
30398;SDS011;17195;50.838;7.214;2022-08-03T07:59:51;4.68;;;2.15;;
30398;SDS011;17195;50.838;7.214;2022-08-03T08:02:16;3.00;;;2.10;;
30398;SDS011;17195;50.838;7.214;2022-08-03T08:04:42;3.28;;;2.00;;
30398;SDS011;17195;50.838;7.214;2022-08-03T08:07:07;2.65;;;2.45;;
30398;SDS011;17195;50.838;7.214;2022-08-03T08:09:33;2.78;;;2.10;;
30398;SDS011;17195;50.838;7.214;2022-08-03T08:11:59;3.65;;;1.90;;
30398;SDS011;17195;50.838;7.214;2022-08-03T08:14:24;2.20;;;2.00;;
30398;SDS011;17195;50.838;7.214;2022-08-03T08:16:50;4.13;;;2.20;;
30398;SDS011;17195;50.838;7.214;2022-08-03T08:19:15;2.45;;;2.13;;
30398;SDS011;17195;50.838;7.214;2022-08-03T08:21:44;3.22;;;2.20;;
30398;SDS011;17195;50.838;7.214;2022-08-03T08:24:10;3.90;;;2.50;;
30398;SDS011;17195;50.838;7.214;2022-08-03T08:26:35;2.55;;;2.10;;
30398;SDS011;17195;50.838;7.214;2022-08-03T08:29:01;2.70;;;2.10;;
30398;SDS011;17195;50.838;7.214;2022-08-03T08:31:28;4.50;;;2.05;;
30398;SDS011;17195;50.838;7.214;2022-08-03T08:33:53;4.68;;;2.10;;
30398;SDS011;17195;50.838;7.214;2022-08-03T08:36:19;3.33;;;2.17;;
30398;SDS011;17195;50.838;7.214;2022-08-03T08:38:45;6.07;;;2.17;;
30398;SDS011;17195;50.838;7.214;2022-08-03T08:41:11;2.40;;;2.10;;
30398;SDS011;17195;50.838;7.214;2022-08-03T08:43:38;2.13;;;1.88;;
30398;SDS011;17195;50.838;7.214;2022-08-03T08:46:04;3.45;;;2.20;;
30398;SDS011;17195;50.838;7.214;2022-08-03T08:48:34;2.47;;;2.00;;
30398;SDS011;17195;50.838;7.214;2022-08-03T08:51:04;3.30;;;1.90;;
30398;SDS011;17195;50.838;7.214;2022-08-03T08:53:30;4.70;;;2.33;;
30398;SDS011;17195;50.838;7.214;2022-08-03T08:56:00;10.48;;;2.20;;
30398;SDS011;17195;50.838;7.214;2022-08-03T08:58:36;2.35;;;2.00;;
30398;SDS011;17195;50.838;7.214;2022-08-03T09:01:05;1.90;;;1.80;;
30398;SDS011;17195;50.838;7.214;2022-08-03T09:03:32;3.88;;;2.03;;
30398;SDS011;17195;50.838;7.214;2022-08-03T09:05:58;2.60;;;1.88;;
30398;SDS011;17195;50.838;7.214;2022-08-03T09:08:25;4.70;;;1.90;;
30398;SDS011;17195;50.838;7.214;2022-08-03T09:10:50;3.53;;;2.15;;
30398;SDS011;17195;50.838;7.214;2022-08-03T09:13:16;2.95;;;1.63;;
30398;SDS011;17195;50.838;7.214;2022-08-03T09:15:42;1.80;;;1.60;;
30398;SDS011;17195;50.838;7.214;2022-08-03T09:18:08;2.15;;;1.73;;
30398;SDS011;17195;50.838;7.214;2022-08-03T09:20:34;7.43;;;1.80;;
30398;SDS011;17195;50.838;7.214;2022-08-03T09:23:02;8.75;;;4.65;;
30398;SDS011;17195;50.838;7.214;2022-08-03T09:25:39;2.72;;;2.53;;
30398;SDS011;17195;50.838;7.214;2022-08-03T09:30:36;2.08;;;1.50;;
30398;SDS011;17195;50.838;7.214;2022-08-03T09:33:04;1.70;;;1.60;;
30398;SDS011;17195;50.838;7.214;2022-08-03T09:35:31;4.22;;;1.67;;
30398;SDS011;17195;50.838;7.214;2022-08-03T09:38:10;6.68;;;1.70;;
30398;SDS011;17195;50.838;7.214;2022-08-03T09:40:40;2.58;;;1.90;;
30398;SDS011;17195;50.838;7.214;2022-08-03T09:43:06;2.67;;;1.48;;
30398;SDS011;17195;50.838;7.214;2022-08-03T09:45:36;4.25;;;2.05;;
30398;SDS011;17195;50.838;7.214;2022-08-03T09:50:51;2.38;;;1.67;;
30398;SDS011;17195;50.838;7.214;2022-08-03T09:53:19;2.97;;;1.88;;
30398;SDS011;17195;50.838;7.214;2022-08-03T09:55:49;5.07;;;2.03;;
30398;SDS011;17195;50.838;7.214;2022-08-03T09:58:15;9.75;;;2.00;;
30398;SDS011;17195;50.838;7.214;2022-08-03T10:03:27;1.50;;;1.35;;
30398;SDS011;17195;50.838;7.214;2022-08-03T10:05:57;3.45;;;1.60;;
30398;SDS011;17195;50.838;7.214;2022-08-03T10:08:23;7.88;;;1.70;;
30398;SDS011;17195;50.838;7.214;2022-08-03T10:10:49;3.00;;;1.80;;
30398;SDS011;17195;50.838;7.214;2022-08-03T10:13:18;3.53;;;1.60;;
30398;SDS011;17195;50.838;7.214;2022-08-03T10:15:44;2.35;;;1.35;;
30398;SDS011;17195;50.838;7.214;2022-08-03T10:18:10;3.28;;;1.52;;
30398;SDS011;17195;50.838;7.214;2022-08-03T10:20:38;3.20;;;1.67;;
30398;SDS011;17195;50.838;7.214;2022-08-03T10:23:08;3.50;;;1.80;;
30398;SDS011;17195;50.838;7.214;2022-08-03T10:25:35;3.47;;;1.60;;
30398;SDS011;17195;50.838;7.214;2022-08-03T10:28:03;4.60;;;1.85;;
30398;SDS011;17195;50.838;7.214;2022-08-03T10:30:30;2.88;;;1.30;;
30398;SDS011;17195;50.838;7.214;2022-08-03T10:35:26;2.78;;;1.20;;
30398;SDS011;17195;50.838;7.214;2022-08-03T10:37:58;5.65;;;1.60;;
30398;SDS011;17195;50.838;7.214;2022-08-03T10:40:52;3.25;;;1.50;;
30398;SDS011;17195;50.838;7.214;2022-08-03T10:43:20;2.17;;;1.40;;
30398;SDS011;17195;50.838;7.214;2022-08-03T10:45:55;6.10;;;1.58;;
30398;SDS011;17195;50.838;7.214;2022-08-03T10:48:22;3.88;;;1.63;;
30398;SDS011;17195;50.838;7.214;2022-08-03T10:50:49;5.13;;;1.58;;
30398;SDS011;17195;50.838;7.214;2022-08-03T10:53:16;2.35;;;1.40;;
30398;SDS011;17195;50.838;7.214;2022-08-03T10:55:58;3.45;;;1.27;;
30398;SDS011;17195;50.838;7.214;2022-08-03T10:58:46;3.05;;;1.40;;
30398;SDS011;17195;50.838;7.214;2022-08-03T11:01:15;5.60;;;1.50;;
30398;SDS011;17195;50.838;7.214;2022-08-03T11:06:20;3.50;;;1.70;;
30398;SDS011;17195;50.838;7.214;2022-08-03T11:08:48;2.28;;;1.20;;
30398;SDS011;17195;50.838;7.214;2022-08-03T11:11:35;5.07;;;1.70;;
30398;SDS011;17195;50.838;7.214;2022-08-03T11:14:02;3.72;;;1.42;;
30398;SDS011;17195;50.838;7.214;2022-08-03T11:16:33;2.63;;;1.42;;
30398;SDS011;17195;50.838;7.214;2022-08-03T11:19:02;9.77;;;1.75;;
30398;SDS011;17195;50.838;7.214;2022-08-03T11:32:56;3.78;;;1.40;;
30398;SDS011;17195;50.838;7.214;2022-08-03T11:35:30;3.63;;;1.52;;
30398;SDS011;17195;50.838;7.214;2022-08-03T11:46:08;3.95;;;1.70;;
30398;SDS011;17195;50.838;7.214;2022-08-03T11:48:44;4.40;;;1.60;;
30398;SDS011;17195;50.838;7.214;2022-08-03T11:51:21;2.55;;;1.60;;
30398;SDS011;17195;50.838;7.214;2022-08-03T11:53:52;5.00;;;1.77;;
30398;SDS011;17195;50.838;7.214;2022-08-03T11:56:42;1.50;;;1.40;;
30398;SDS011;17195;50.838;7.214;2022-08-03T11:59:12;1.85;;;1.30;;
30398;SDS011;17195;50.838;7.214;2022-08-03T12:01:37;4.35;;;1.70;;
30398;SDS011;17195;50.838;7.214;2022-08-03T12:04:04;5.07;;;1.70;;
30398;SDS011;17195;50.838;7.214;2022-08-03T12:06:30;5.68;;;1.60;;
30398;SDS011;17195;50.838;7.214;2022-08-03T12:09:16;6.55;;;1.60;;
30398;SDS011;17195;50.838;7.214;2022-08-03T12:11:41;2.33;;;1.58;;
30398;SDS011;17195;50.838;7.214;2022-08-03T12:14:07;3.85;;;2.00;;
30398;SDS011;17195;50.838;7.214;2022-08-03T12:16:40;4.35;;;1.65;;
30398;SDS011;17195;50.838;7.214;2022-08-03T12:19:11;1.83;;;1.50;;
30398;SDS011;17195;50.838;7.214;2022-08-03T12:21:46;4.53;;;1.48;;
30398;SDS011;17195;50.838;7.214;2022-08-03T12:24:12;8.20;;;1.60;;
30398;SDS011;17195;50.838;7.214;2022-08-03T12:26:45;5.40;;;1.52;;
30398;SDS011;17195;50.838;7.214;2022-08-03T12:29:21;8.00;;;1.50;;
30398;SDS011;17195;50.838;7.214;2022-08-03T12:31:49;2.20;;;1.30;;
30398;SDS011;17195;50.838;7.214;2022-08-03T12:34:15;2.58;;;1.30;;
30398;SDS011;17195;50.838;7.214;2022-08-03T12:36:50;1.38;;;1.15;;
30398;SDS011;17195;50.838;7.214;2022-08-03T12:39:24;5.97;;;1.40;;
30398;SDS011;17195;50.838;7.214;2022-08-03T12:41:51;2.13;;;1.55;;
30398;SDS011;17195;50.838;7.214;2022-08-03T12:44:27;2.42;;;1.27;;
30398;SDS011;17195;50.838;7.214;2022-08-03T12:46:56;3.47;;;1.50;;
30398;SDS011;17195;50.838;7.214;2022-08-03T12:49:22;3.88;;;1.50;;
30398;SDS011;17195;50.838;7.214;2022-08-03T12:54:20;5.63;;;1.50;;
30398;SDS011;17195;50.838;7.214;2022-08-03T12:56:57;4.00;;;1.48;;
30398;SDS011;17195;50.838;7.214;2022-08-03T12:59:31;2.00;;;1.40;;
30398;SDS011;17195;50.838;7.214;2022-08-03T13:01:58;4.00;;;1.70;;
30398;SDS011;17195;50.838;7.214;2022-08-03T13:04:25;5.50;;;1.65;;
30398;SDS011;17195;50.838;7.214;2022-08-03T13:06:56;5.78;;;1.60;;
30398;SDS011;17195;50.838;7.214;2022-08-03T13:09:46;6.60;;;1.40;;
30398;SDS011;17195;50.838;7.214;2022-08-03T13:12:14;5.32;;;1.60;;
30398;SDS011;17195;50.838;7.214;2022-08-03T13:14:40;1.83;;;1.20;;
30398;SDS011;17195;50.838;7.214;2022-08-03T13:17:07;4.80;;;1.30;;
30398;SDS011;17195;50.838;7.214;2022-08-03T13:19:33;2.30;;;1.40;;
30398;SDS011;17195;50.838;7.214;2022-08-03T13:22:00;3.83;;;1.20;;
30398;SDS011;17195;50.838;7.214;2022-08-03T13:24:34;2.55;;;1.30;;
30398;SDS011;17195;50.838;7.214;2022-08-03T13:27:00;4.75;;;1.55;;
30398;SDS011;17195;50.838;7.214;2022-08-03T13:29:26;4.60;;;1.40;;
30398;SDS011;17195;50.838;7.214;2022-08-03T13:31:52;2.20;;;1.30;;
30398;SDS011;17195;50.838;7.214;2022-08-03T13:34:17;10.13;;;1.42;;
30398;SDS011;17195;50.838;7.214;2022-08-03T13:36:43;6.30;;;1.55;;
30398;SDS011;17195;50.838;7.214;2022-08-03T13:39:08;7.60;;;1.40;;
30398;SDS011;17195;50.838;7.214;2022-08-03T13:41:34;2.90;;;1.20;;
30398;SDS011;17195;50.838;7.214;2022-08-03T13:44:00;3.28;;;1.35;;
30398;SDS011;17195;50.838;7.214;2022-08-03T13:46:25;3.83;;;1.42;;
30398;SDS011;17195;50.838;7.214;2022-08-03T13:48:51;1.70;;;1.25;;
30398;SDS011;17195;50.838;7.214;2022-08-03T13:51:17;2.67;;;1.10;;
30398;SDS011;17195;50.838;7.214;2022-08-03T13:53:42;2.67;;;1.20;;
30398;SDS011;17195;50.838;7.214;2022-08-03T13:56:08;5.72;;;1.25;;
30398;SDS011;17195;50.838;7.214;2022-08-03T13:58:33;3.67;;;1.25;;
30398;SDS011;17195;50.838;7.214;2022-08-03T14:00:59;2.60;;;1.10;;
30398;SDS011;17195;50.838;7.214;2022-08-03T14:03:25;6.43;;;1.30;;
30398;SDS011;17195;50.838;7.214;2022-08-03T14:05:50;3.13;;;1.67;;
30398;SDS011;17195;50.838;7.214;2022-08-03T14:08:16;1.48;;;1.25;;
30398;SDS011;17195;50.838;7.214;2022-08-03T14:10:42;4.85;;;1.27;;
30398;SDS011;17195;50.838;7.214;2022-08-03T14:13:12;7.28;;;1.40;;
30398;SDS011;17195;50.838;7.214;2022-08-03T14:15:39;1.80;;;1.10;;
30398;SDS011;17195;50.838;7.214;2022-08-03T14:18:06;2.88;;;1.20;;
30398;SDS011;17195;50.838;7.214;2022-08-03T14:20:32;3.80;;;1.50;;
30398;SDS011;17195;50.838;7.214;2022-08-03T14:22:57;2.10;;;1.10;;
30398;SDS011;17195;50.838;7.214;2022-08-03T14:25:23;4.32;;;1.27;;
30398;SDS011;17195;50.838;7.214;2022-08-03T14:27:48;3.95;;;1.27;;
30398;SDS011;17195;50.838;7.214;2022-08-03T14:30:14;2.90;;;1.30;;
30398;SDS011;17195;50.838;7.214;2022-08-03T14:32:40;2.55;;;1.25;;
30398;SDS011;17195;50.838;7.214;2022-08-03T14:35:05;2.08;;;1.05;;
30398;SDS011;17195;50.838;7.214;2022-08-03T14:37:31;1.48;;;0.95;;
30398;SDS011;17195;50.838;7.214;2022-08-03T14:39:57;1.55;;;1.10;;
30398;SDS011;17195;50.838;7.214;2022-08-03T14:42:23;2.30;;;1.30;;
30398;SDS011;17195;50.838;7.214;2022-08-03T14:44:49;5.10;;;1.35;;
30398;SDS011;17195;50.838;7.214;2022-08-03T14:47:14;5.75;;;1.20;;
30398;SDS011;17195;50.838;7.214;2022-08-03T14:49:40;1.70;;;1.00;;
30398;SDS011;17195;50.838;7.214;2022-08-03T14:52:06;5.00;;;1.40;;
30398;SDS011;17195;50.838;7.214;2022-08-03T14:54:32;4.03;;;1.08;;
30398;SDS011;17195;50.838;7.214;2022-08-03T14:56:57;2.67;;;1.10;;
30398;SDS011;17195;50.838;7.214;2022-08-03T14:59:24;2.28;;;1.20;;
30398;SDS011;17195;50.838;7.214;2022-08-03T15:01:50;3.42;;;1.27;;
30398;SDS011;17195;50.838;7.214;2022-08-03T15:04:15;2.53;;;0.98;;
30398;SDS011;17195;50.838;7.214;2022-08-03T15:06:41;2.83;;;1.17;;
30398;SDS011;17195;50.838;7.214;2022-08-03T15:09:06;1.75;;;1.00;;
30398;SDS011;17195;50.838;7.214;2022-08-03T15:11:32;2.83;;;1.10;;
30398;SDS011;17195;50.838;7.214;2022-08-03T15:13:58;3.33;;;1.10;;
30398;SDS011;17195;50.838;7.214;2022-08-03T15:16:23;2.80;;;1.00;;
30398;SDS011;17195;50.838;7.214;2022-08-03T15:18:49;4.00;;;1.00;;
30398;SDS011;17195;50.838;7.214;2022-08-03T15:21:14;6.15;;;1.00;;
30398;SDS011;17195;50.838;7.214;2022-08-03T15:23:40;5.22;;;1.27;;
30398;SDS011;17195;50.838;7.214;2022-08-03T15:26:05;2.55;;;0.88;;
30398;SDS011;17195;50.838;7.214;2022-08-03T15:28:31;2.10;;;1.00;;
30398;SDS011;17195;50.838;7.214;2022-08-03T15:30:57;2.65;;;0.93;;
30398;SDS011;17195;50.838;7.214;2022-08-03T15:33:22;2.03;;;0.80;;
30398;SDS011;17195;50.838;7.214;2022-08-03T15:35:48;2.75;;;1.00;;
30398;SDS011;17195;50.838;7.214;2022-08-03T15:38:13;3.60;;;0.98;;